Tiempo atmosférico en la estación meteorológica de Fuente De Cantos, Badajoz (602 m.)

Fecha
DESCASC
Temp. máxima en grados centígrados (hora)
DESCASC
Temp. mínima en grados centígrados (hora)
DESCASC
Temp. media en grados centígrados
DESCASC
Racha de viento máxima en m/sg (hora)
DESCASC
Velocidad máxima media en intervalos de 10 minutos(hora)
DESCASC
Precipitaciones diarias en mm
DESCASC
Precipitaciones de 00:00 a 06:00 en mm
DESCASC
Precipitaciones de 06:00 a 12:00 en mm
DESCASC
Precipitaciones de 12:00 a 18:00 en mm
DESCASC
Precipitaciones de 18:00 a 24:00 en mm
DESCASC
23-11-2017 19.7 (13:20) 8.2 (07:50) 14 10.83 (13:00) 8.33 (12:40) 0 0 0 0 0
22-11-2017 21.1 (15:30) 10.4 (05:20) 15.8 8.61 (17:50) 6.39 (13:20) 0 0 0 0 0
21-11-2017 22.4 (15:10) 12 (04:40) 17.2 7.5 (15:30) 6.11 (08:00) 0 0 0 0 0
20-11-2017 21.9 (15:40) 8.9 (06:50) 15.4 6.11 (07:20) 5.56 (09:10) 0 0 0 0 0
19-11-2017 21.2 (16:00) 11.4 (00:00) 16.3 6.11 (09:30) 5.56 (09:30) 0 0 0 0 0
18-11-2017 21.6 (15:40) 11.4 (00:00) 16.5 4.72 (18:40) 3.89 (18:30) 0 0 0 0 0
17-11-2017 21.4 (16:00) 9.9 (00:00) 15.6 5 (20:10) 4.44 (06:00) 0 0 0 0 0
16-11-2017 19.8 (16:40) 9.4 (00:00) 14.6 4.44 (20:50) 3.61 (20:50) 0 0 0 0 0
15-11-2017 17.5 (17:10) 6.7 (00:00) 12.1 6.67 (08:10) 6.11 (08:30) 0 0 0 0 0
14-11-2017 16.3 (16:10) 5.1 (00:00) 10.7 6.94 (04:00) 6.11 (03:40) 0 0 0 0 0
13-11-2017 18 (15:20) 6.7 (00:00) 12.3 7.22 (16:30) 5.83 (23:59) 0 0 0 0 0
12-11-2017 20.4 (16:30) 10.9 (00:00) 15.6 8.61 (14:50) 6.67 (14:50) 0 0 0 0 0
11-11-2017 19.1 (15:10) 8.9 (00:00) 14 7.22 (15:10) 5.28 (16:10) 0 0 0 0 0
10-11-2017 16.4 (15:40) 2.6 (00:00) 9.5 10.83 (13:40) 8.06 (13:10) 0 0 0 0 0
09-11-2017 13.9 (14:10) 3.8 (00:00) 8.8 12.78 (13:00) 9.17 (12:40) 0 0 0 0 0
08-11-2017 16.4 (16:10) 7.9 (00:00) 12.1 11.11 (20:30) 8.61 (20:30) 0 0 0 0 0
07-11-2017 17.6 (14:50) 5.8 (00:00) 11.7 8.61 (15:10) 5.83 (15:10) 0 0 0 0 0
06-11-2017 16.8 (15:50) 5.5 (00:00) 11.1 10.28 (15:40) 7.22 (14:40) 0 0 0 0 0
05-11-2017 16.7 (15:50) 8.4 (00:00) 12.6 8.61 (15:50) 6.39 (17:20) 0 0 0 0 0
04-11-2017 16.3 (13:10) 10.8 (00:00) 13.5 13.33 (13:10) 10.56 (14:30) 1.2 0.4 0 0.8 0
03-11-2017 19.5 (15:00) 12.8 (00:00) 16.2 10 (15:40) 7.78 (16:50) 1.8 1.8 0 0 0
02-11-2017 17.6 (14:50) 13.1 (06:50) 15.4 10.83 (12:30) 8.61 (12:30) 0 0 0 0 0
01-11-2017 21.2 (13:50) 11.5 (00:00) 16.4 10.56 (12:20) 7.22 (13:20) 0 0 0 0 0
31-10-2017 23 (16:00) 12.6 (00:00) 17.8 7.78 (15:10) 5 (07:20) 0 0 0 0 0
30-10-2017 24.5 (15:30) 15.6 (00:00) 20.1 7.22 (16:20) 5 (10:50) 0 0 0 0 0
29-10-2017 25 (15:50) 13.7 (00:00) 19.3 6.67 (15:10) 5.28 (07:00) 0 0 0 0 0
28-10-2017 27 (16:10) 14.3 (00:00) 20.7 10.83 (11:10) 8.06 (11:10) 0 0 0 0 0
27-10-2017 29 (16:40) 14.6 (00:00) 21.8 7.78 (09:40) 6.11 (09:40) 0 0 0 0 0
26-10-2017 27.5 (16:50) 16 (00:00) 21.8 8.61 (07:10) 7.5 (06:30) 0 0 0 0 0
25-10-2017 27 (16:50) 12.8 (00:00) 19.9 8.89 (14:10) 7.5 (08:40) 0 0 0 0 0

Gráficas

Temp. máximas Temp. mínimas Temp. medias Precipitaciones Rachas de viento máximas Velocidades máximas media en intervalos de 10 minutos

Datos horarios

Fecha y hora oficial Temperatura (ºC) Velocidad del viento (km/h) Dirección del viento Racha (km/h) Dirección de racha Precipitación (mm) Presión (hPa) Tendencia (hPa) Humedad (%)
2017-11-23 23:00:00 14.6 13 Sudoeste 28 Sur 0 -- -- 51
2017-11-23 22:00:00 14.3 17 Sur 27 Sur 0 -- -- 47
2017-11-23 21:00:00 14.8 18 Sur 31 Sur 0 -- -- 50
2017-11-23 20:00:00 15.6 22 Sur 32 Sur 0 -- -- 44
2017-11-23 19:00:00 16.1 22 Sur 33 Sur 0 -- -- 41
2017-11-23 18:00:00 17.1 23 Sur 33 Sur 0 -- -- 35
2017-11-23 17:00:00 18.8 24 Sur 31 Sur 0 -- -- 30
2017-11-23 16:00:00 18.4 17 Sur 37 Sur 0 -- -- 34
2017-11-23 15:00:00 18.9 29 Sur 38 Sur 0 -- -- 31
2017-11-23 14:00:00 18.7 19 Sur 35 Sur 0 -- -- 40
2017-11-23 13:00:00 18.9 28 Sur 39 Sur 0 -- -- 34
2017-11-23 12:00:00 16.8 28 Sur 34 Sur 0 -- -- 41
2017-11-23 11:00:00 14.3 19 Sudeste 25 Sudeste 0 -- -- 64
2017-11-23 10:00:00 13.5 18 Sudeste 24 Sudeste 0 -- -- 64
2017-11-23 09:00:00 10.6 19 Sudeste 23 Este 0 -- -- 71
2017-11-23 08:00:00 9.2 15 Este 25 Este 0 -- -- 79
2017-11-23 07:00:00 10.6 12 Sudeste 14 Sudeste 0 -- -- 66
2017-11-23 06:00:00 11 12 Este 17 Sudeste 0 -- -- 64
2017-11-23 05:00:00 11.2 8 Sudeste 15 Sudeste 0 -- -- 57
2017-11-23 04:00:00 11.7 13 Sudeste 18 Sudeste 0 -- -- 49
2017-11-23 03:00:00 12.4 11 Sudeste 20 Sudeste 0 -- -- 41
2017-11-23 02:00:00 12.3 16 Sudeste 21 Sudeste 0 -- -- 39
2017-11-23 01:00:00 13 12 Sur 21 Sudeste 0 -- -- 38
2017-11-23 00:00:00 13.5 16 Sudeste 22 Sudeste 0 -- -- 37
2017-11-22 23:00:00 13.6 18 Sudeste 24 Sudeste 0 -- -- 37
2017-11-22 22:00:00 13.6 19 Sudeste 26 Sudeste 0 -- -- 35
2017-11-22 21:00:00 14.3 12 Sudeste 22 Sudeste 0 -- -- 32
2017-11-22 20:00:00 14.6 12 Sur 24 Sur 0 -- -- 31
2017-11-22 19:00:00 15.7 13 Sur 21 Sur 0 -- -- 32
2017-11-22 18:00:00 17.9 17 Sur 31 Sur 0 -- -- 30
2017-11-22 17:00:00 20.4 18 Sudoeste 25 Sudoeste 0 -- -- 27
2017-11-22 16:00:00 21.1 13 Sur 25 Sudoeste 0 -- -- 28
2017-11-22 15:00:00 20.6 14 Sur 26 Sudoeste 0 -- -- 28
2017-11-22 14:00:00 19.4 20 Sudoeste 30 Sudoeste 0 -- -- 30
2017-11-22 13:00:00 19.8 16 Sudoeste 25 Sudoeste 0 -- -- 29
2017-11-22 12:00:00 19.2 16 Sudeste 23 Sudeste 0 -- -- 31
2017-11-22 11:00:00 14.7 16 Este 22 Este 0 -- -- 39
2017-11-22 10:00:00 13.5 15 Este 19 Este 0 -- -- 39
2017-11-22 09:00:00 13.3 13 Sudeste 18 Sudeste 0 -- -- 37
2017-11-22 08:00:00 12.5 14 Sudeste 15 Sudeste 0 -- -- 39
2017-11-22 07:00:00 12.6 5 Sudeste 9 Sudeste 0 -- -- 39
2017-11-22 06:00:00 11.8 8 Sudeste 11 Sudeste 0 -- -- 40
2017-11-22 05:00:00 12.2 13 Sudeste 21 Sudeste 0 -- -- 40
2017-11-22 04:00:00 11.7 19 Sudeste 23 Sudeste 0 -- -- 40
2017-11-22 03:00:00 12.5 17 Sudeste 22 Sudeste 0 -- -- 39
2017-11-22 02:00:00 13 9 Sur 12 Sudeste 0 -- -- 37
2017-11-22 01:00:00 13.3 9 Sudeste 15 Sudeste 0 -- -- 33
2017-11-22 00:00:00 13.7 13 Sudeste 17 Sudeste 0 -- -- 33
2017-11-21 23:00:00 13.9 14 Sudeste 19 Este 0 -- -- 34
2017-11-21 22:00:00 14.1 15 Sudeste 20 Sudeste 0 -- -- 33
2017-11-21 21:00:00 13.9 10 Sudeste 14 Sur 0 -- -- 33
2017-11-21 20:00:00 13.9 13 Sudeste 15 Sur 0 -- -- 34
2017-11-21 19:00:00 16 11 Sudeste 14 Sudeste 0 -- -- 31
2017-11-21 18:00:00 18.9 11 Sur 18 Sur 0 -- -- 27
2017-11-21 17:00:00 21.5 12 Sur 21 Sur 0 -- -- 22
2017-11-21 16:00:00 22.4 9 Sudoeste 27 Sudoeste 0 -- -- 21
2017-11-21 15:00:00 22.2 13 Sudoeste 20 Sudoeste 0 -- -- 21
2017-11-21 14:00:00 22.2 12 Sur 23 Este 0 -- -- 21
2017-11-21 13:00:00 20.9 12 Sudeste 19 Sudeste 0 -- -- 26
2017-11-21 12:00:00 19.1 9 Sudeste 16 Este 0 -- -- 30
2017-11-21 11:00:00 18 12 Sudeste 21 Sudeste 0 -- -- 32
2017-11-21 10:00:00 14.7 20 Sudeste 23 Sudeste 0 -- -- 37
2017-11-21 09:00:00 13.9 16 Este 24 Sudeste 0 -- -- 38
2017-11-21 08:00:00 13.7 22 Sudeste 24 Sudeste 0 -- -- 40
2017-11-21 07:00:00 13.9 18 Este 22 Este 0 -- -- 41
2017-11-21 06:00:00 13.9 16 Sudeste 17 Sudeste 0 -- -- 39
2017-11-21 05:00:00 12.5 11 Sudeste 13 Sudeste 0 -- -- 41
2017-11-21 04:00:00 12.6 12 Sudeste 13 Sudeste 0 -- -- 40
2017-11-21 03:00:00 13.8 5 Este 9 Este 0 -- -- 38
2017-11-21 02:00:00 14.2 3 Sudeste 4 Este 0 -- -- 38
2017-11-21 01:00:00 14.2 0 Calma 2 Noroeste 0 -- -- 37
2017-11-21 00:00:00 13.9 0 Calma 6 Este 0 -- -- 39
2017-11-20 23:00:00 12.8 0 Calma 14 Sudeste 0 -- -- 41
2017-11-20 22:00:00 14.3 12 Sudeste 16 Sudeste 0 -- -- 36
2017-11-20 21:00:00 14.3 10 Sudeste 14 Sudeste 0 -- -- 35
2017-11-20 20:00:00 15.1 8 Sur 12 Sudeste 0 -- -- 34
2017-11-20 19:00:00 16.8 10 Sudeste 15 Sudeste 0 -- -- 30
2017-11-20 18:00:00 19.2 13 Sudeste 18 Este 0 -- -- 28
2017-11-20 17:00:00 21.4 13 Este 21 Este 0 -- -- 22
2017-11-20 16:00:00 21.7 12 Este 19 Este 0 -- -- 21
2017-11-20 15:00:00 21.6 11 Este 21 Este 0 -- -- 21
2017-11-20 14:00:00 21 13 Nordeste 19 Nordeste 0 -- -- 24
2017-11-20 13:00:00 20.4 10 Este 19 Este 0 -- -- 28
2017-11-20 12:00:00 18.8 13 Este 22 Este 0 -- -- 32
2017-11-20 11:00:00 16.4 12 Este 21 Este 0 -- -- 38
2017-11-20 10:00:00 13.6 13 Este 22 Sudeste 0 -- -- 45
2017-11-20 09:00:00 12.9 19 Sudeste 21 Sudeste 0 -- -- 45
2017-11-20 08:00:00 10.4 14 Sudeste 22 Este 0 -- -- 51
2017-11-20 07:00:00 10.9 14 Este 19 Este 0 -- -- 49
2017-11-20 06:00:00 12.2 14 Este 15 Este 0 -- -- 46
2017-11-20 05:00:00 12.1 12 Este 13 Este 0 -- -- 46
2017-11-20 04:00:00 13.2 12 Este 14 Este 0 -- -- 43
2017-11-20 03:00:00 13.3 11 Este 15 Este 0 -- -- 43
2017-11-20 02:00:00 11.9 13 Este 19 Este 0 -- -- 46
2017-11-20 01:00:00 12.6 14 Sudeste 18 Este 0 -- -- 44
2017-11-20 00:00:00 12.3 15 Este 17 Este 0 -- -- 45
2017-11-19 23:00:00 11.5 10 Este 14 Este 0 -- -- 48
2017-11-19 22:00:00 14.4 5 Este 17 Este 0 -- -- 41
2017-11-19 21:00:00 13.6 10 Este 14 Este 0 -- -- 44
2017-11-19 20:00:00 13.4 11 Nordeste 16 Nordeste 0 -- -- 45
2017-11-19 19:00:00 17 8 Este 11 Nordeste 0 -- -- 33
2017-11-19 18:00:00 19.9 4 Este 9 Sudeste 0 -- -- 28
2017-11-19 17:00:00 21 5 Este 17 Sudeste 0 -- -- 26
2017-11-19 16:00:00 21.2 7 Este 18 Sudeste 0 -- -- 27
2017-11-19 15:00:00 21 11 Este 19 Sudeste 0 -- -- 27
2017-11-19 14:00:00 20.1 12 Este 19 Este 0 -- -- 30
2017-11-19 13:00:00 19.3 11 Este 18 Este 0 -- -- 30
2017-11-19 12:00:00 17.7 13 Este 19 Este 0 -- -- 38
2017-11-19 11:00:00 16.3 11 Este 18 Sudeste 0 -- -- 42
2017-11-19 10:00:00 13.7 15 Este 22 Sudeste 0 -- -- 46
2017-11-19 09:00:00 12.9 18 Sudeste 22 Este 0 -- -- 46
2017-11-19 08:00:00 11.6 10 Este 18 Sudeste 0 -- -- 50
2017-11-19 07:00:00 12.7 10 Este 14 Sudeste 0 -- -- 47
2017-11-19 06:00:00 13.2 9 Este 12 Este 0 -- -- 45
2017-11-19 05:00:00 13.9 11 Este 14 Este 0 -- -- 43
2017-11-19 04:00:00 13.7 9 Este 10 Este 0 -- -- 43
2017-11-19 03:00:00 13.2 5 Este 6 Este 0 -- -- 45
2017-11-19 02:00:00 13 4 Sudeste 5 Sudeste 0 -- -- 44
2017-11-19 01:00:00 12.5 3 Sudeste 7 Sudeste 0 -- -- 46
2017-11-19 00:00:00 11.7 6 Sudeste 9 Nordeste 0 -- -- 49
2017-11-18 23:00:00 13.3 6 Nordeste -- -- 0 -- -- 45
2017-11-18 22:00:00 14 4 Norte 5 Norte 0 -- -- 44
2017-11-18 21:00:00 14.2 2 Este 6 Sudoeste 0 -- -- 44
2017-11-18 20:00:00 14 5 Sudoeste 17 Nordeste 0 -- -- 45
2017-11-18 19:00:00 15.4 13 Nordeste 17 Norte 0 -- -- 40
2017-11-18 18:00:00 19 8 Norte 11 Norte 0 -- -- 32
2017-11-18 17:00:00 21.4 4 Oeste 12 Noroeste 0 -- -- 26
2017-11-18 16:00:00 21.4 8 Nordeste 17 Noroeste 0 -- -- 25
2017-11-18 15:00:00 21.3 6 Nordeste 12 Noroeste 0 -- -- 26
2017-11-18 14:00:00 21.1 4 Noroeste 16 Este 0 -- -- 26
2017-11-18 13:00:00 20.4 5 Nordeste 14 Este 0 -- -- 27
2017-11-18 12:00:00 19.3 6 Este 9 Este 0 -- -- 30
2017-11-18 11:00:00 17.3 3 Sur 5 Sudoeste 0 -- -- 42
2017-11-18 10:00:00 14 4 Nordeste 6 Nordeste 0 -- -- 45
2017-11-18 09:00:00 13 2 Nordeste 4 Nordeste 0 -- -- 45
2017-11-18 08:00:00 12.3 3 Sudeste 4 Este 0 -- -- 45
2017-11-18 07:00:00 12.1 2 Nordeste 5 Sudeste 0 -- -- 47
2017-11-18 06:00:00 12.6 0 Calma 7 Este 0 -- -- 45
2017-11-18 05:00:00 12.7 6 Este 9 Este 0 -- -- 43
2017-11-18 04:00:00 12.3 4 Sudeste 6 Sur 0 -- -- 48
2017-11-18 03:00:00 12.4 4 Este 6 Norte 0 -- -- 45
2017-11-18 02:00:00 12.2 2 Sur 5 Sur 0 -- -- 45
2017-11-18 01:00:00 12.4 0 Calma 4 Sur 0 -- -- 44
2017-11-18 00:00:00 13 2 Este 4 Norte 0 -- -- 40
2017-11-17 23:00:00 13.2 2 Noroeste 5 Nordeste 0 -- -- 42
2017-11-17 22:00:00 13 4 Nordeste 11 Nordeste 0 -- -- 43
2017-11-17 21:00:00 12.7 11 Nordeste 18 Nordeste 0 -- -- 43
2017-11-17 20:00:00 13.5 13 Nordeste 17 Nordeste 0 -- -- 40
2017-11-17 19:00:00 15.4 12 Nordeste 15 Nordeste 0 -- -- 38
2017-11-17 18:00:00 18.3 10 Norte 15 Nordeste 0 -- -- 34
2017-11-17 17:00:00 20.6 10 Nordeste 17 Norte 0 -- -- 27
2017-11-17 16:00:00 21.4 10 Nordeste 17 Este 0 -- -- 26
2017-11-17 15:00:00 21 4 Este 15 Nordeste 0 -- -- 28
2017-11-17 14:00:00 20.1 8 Nordeste 15 Nordeste 0 -- -- 29
2017-11-17 13:00:00 19.6 6 Este 13 Este 0 -- -- 28
2017-11-17 12:00:00 19.1 6 Este 10 Este 0 -- -- 30
2017-11-17 11:00:00 17.3 4 Este 8 Este 0 -- -- 40
2017-11-17 10:00:00 14.1 3 Este 9 Sudeste 0 -- -- 53
2017-11-17 09:00:00 11.2 3 Sudeste 12 Este 0 -- -- 54
2017-11-17 08:00:00 11 9 Este 12 Este 0 -- -- 55
2017-11-17 07:00:00 11.4 8 Sudeste 16 Este 0 -- -- 54
2017-11-17 06:00:00 12.5 16 Este 17 Este 0 -- -- 51
2017-11-17 05:00:00 10.6 12 Este 13 Este 0 -- -- 55
2017-11-17 04:00:00 12.4 8 Este 9 Este 0 -- -- 51
2017-11-17 03:00:00 12.3 3 Sudeste 6 Sudeste 0 -- -- 50
2017-11-17 02:00:00 11.1 5 Sudeste 6 Sudeste 0 -- -- 52
2017-11-17 01:00:00 12.4 3 Sudeste 8 Este 0 -- -- 49
2017-11-17 00:00:00 11.9 5 Sudeste 8 Este 0 -- -- 46
2017-11-16 23:00:00 11.9 7 Este 14 Nordeste 0 -- -- 50
2017-11-16 22:00:00 11.2 12 Nordeste 15 Nordeste 0 -- -- 50
2017-11-16 21:00:00 12.1 13 Nordeste 16 Nordeste 0 -- -- 43
2017-11-16 20:00:00 13.1 9 Nordeste 12 Nordeste 0 -- -- 42
2017-11-16 19:00:00 14.2 10 Nordeste 12 Nordeste 0 -- -- 43
2017-11-16 18:00:00 17.3 9 Norte 10 Norte 0 -- -- 39
2017-11-16 17:00:00 19.4 6 Nordeste 15 Noroeste 0 -- -- 34
2017-11-16 16:00:00 19.5 5 Nordeste 15 Norte 0 -- -- 34
2017-11-16 15:00:00 19 5 Norte 12 Noroeste 0 -- -- 35
2017-11-16 14:00:00 18.3 5 Norte 10 Norte 0 -- -- 39
2017-11-16 13:00:00 17.4 4 Nordeste 12 Norte 0 -- -- 43
2017-11-16 12:00:00 16.2 2 Nordeste 8 Norte 0 -- -- 47
2017-11-16 11:00:00 14.7 2 Sudoeste 5 Oeste 0 -- -- 55
2017-11-16 10:00:00 12.1 3 Sur 4 Sur 0 -- -- 62
2017-11-16 09:00:00 10.5 3 Nordeste 7 Nordeste 0 -- -- 63
2017-11-16 08:00:00 10.1 6 Este 7 Este 0 -- -- 64
2017-11-16 07:00:00 9.6 2 Nordeste 3 Nordeste 0 -- -- 65
2017-11-16 06:00:00 10.2 0 Calma 4 Nordeste 0 -- -- 63
2017-11-16 05:00:00 9.8 2 Sudeste -- -- 0 -- -- 65
2017-11-16 04:00:00 9.9 0 Calma 2 Sudoeste 0 -- -- 62
2017-11-16 03:00:00 9.8 2 Sur 5 Sudeste 0 -- -- 63
2017-11-16 02:00:00 10.6 4 Este 6 Este 0 -- -- 61
2017-11-16 01:00:00 10.1 6 Sudeste 13 Sudeste 0 -- -- 61
2017-11-16 00:00:00 9.8 9 Sudeste 10 Sudeste 0 -- -- 59
2017-11-15 23:00:00 10.2 5 Nordeste 6 Nordeste 0 -- -- 58
2017-11-15 22:00:00 10 6 Nordeste 12 Nordeste 0 -- -- 53
2017-11-15 21:00:00 11.1 4 Norte 12 Norte 0 -- -- 41
2017-11-15 20:00:00 11.9 8 Norte 12 Norte 0 -- -- 40
2017-11-15 19:00:00 12.9 10 Norte 12 Norte 0 -- -- 39
2017-11-15 18:00:00 16 6 Noroeste 11 Noroeste 0 -- -- 35
2017-11-15 17:00:00 17.4 6 Noroeste 16 Noroeste 0 -- -- 28
2017-11-15 16:00:00 17.1 11 Noroeste 21 Noroeste 0 -- -- 31
2017-11-15 15:00:00 16.7 12 Noroeste 23 Noroeste 0 -- -- 41
2017-11-15 14:00:00 16.2 14 Oeste 24 Noroeste 0 -- -- 45
2017-11-15 13:00:00 15.4 10 Oeste 19 Oeste 0 -- -- 50
2017-11-15 12:00:00 14.6 10 Oeste 15 Oeste 0 -- -- 54
2017-11-15 11:00:00 13.6 0 Calma 13 Sudeste 0 -- -- 51
2017-11-15 10:00:00 10.8 12 Sudeste 22 Sudeste 0 -- -- 67
2017-11-15 09:00:00 8.1 19 Sudeste 24 Este 0 -- -- 68
2017-11-15 08:00:00 7.5 16 Este 22 Sudeste 0 -- -- 54
2017-11-15 07:00:00 7.9 13 Este 22 Este 0 -- -- 50
2017-11-15 06:00:00 8.1 14 Este 20 Este 0 -- -- 45
2017-11-15 05:00:00 8 9 Este 14 Este 0 -- -- 45
2017-11-15 04:00:00 8.5 13 Este 14 Este 0 -- -- 42
2017-11-15 03:00:00 9.5 9 Este 12 Este 0 -- -- 40
2017-11-15 02:00:00 9.7 11 Este 13 Este 0 -- -- 40
2017-11-15 01:00:00 10.2 11 Este 14 Este 0 -- -- 39
2017-11-15 00:00:00 9.3 9 Sudeste 13 Este 0 -- -- 40
2017-11-14 23:00:00 9.9 13 Este 22 Este 0 -- -- 39
2017-11-14 22:00:00 10 17 Este 18 Este 0 -- -- 39
2017-11-14 21:00:00 9.7 11 Este 13 Nordeste 0 -- -- 40
2017-11-14 20:00:00 9.2 13 Nordeste 15 Nordeste 0 -- -- 46
2017-11-14 19:00:00 11.5 10 Norte 13 Norte 0 -- -- 39
2017-11-14 18:00:00 14.2 12 Norte 17 Norte 0 -- -- 32
2017-11-14 17:00:00 15.8 14 Nordeste 21 Norte 0 -- -- 28
2017-11-14 16:00:00 16.2 14 Norte 24 Norte 0 -- -- 27
2017-11-14 15:00:00 15.5 13 Norte 20 Norte 0 -- -- 29
2017-11-14 14:00:00 14.7 12 Nordeste 21 Norte 0 -- -- 33
2017-11-14 13:00:00 13.9 15 Nordeste 25 Nordeste 0 -- -- 32
2017-11-14 12:00:00 12.6 14 Nordeste 20 Nordeste 0 -- -- 34
2017-11-14 11:00:00 10.9 9 Este 15 Este 0 -- -- 39
2017-11-14 10:00:00 8.9 9 Sudeste 14 Este 0 -- -- 43
2017-11-14 09:00:00 6.8 13 Este 19 Este 0 -- -- 51
2017-11-14 08:00:00 5.7 11 Este 14 Este 0 -- -- 56
2017-11-14 07:00:00 5.5 10 Este 21 Este 0 -- -- 60
2017-11-14 06:00:00 6 19 Este 23 Este 0 -- -- 59
2017-11-14 05:00:00 6 18 Este 24 Este 0 -- -- 62
2017-11-14 04:00:00 7 22 Este 25 Este 0 -- -- 59
2017-11-14 03:00:00 6.1 17 Este 22 Este 0 -- -- 63
2017-11-14 02:00:00 8.7 19 Este 22 Este 0 -- -- 55
2017-11-14 01:00:00 7.7 21 Este 24 Este 0 -- -- 60
2017-11-14 00:00:00 10.1 21 Este 26 Este 0 -- -- 53
2017-11-13 23:00:00 10.4 16 Este 23 Este 0 -- -- 57
2017-11-13 22:00:00 11.4 2 Oeste 5 Nordeste 0 -- -- 59
2017-11-13 21:00:00 12 5 Nordeste 10 Nordeste 0 -- -- 56
2017-11-13 20:00:00 12.2 9 Nordeste 11 Nordeste 0 -- -- 55
2017-11-13 19:00:00 13.5 8 Norte 15 Norte 0 -- -- 51
2017-11-13 18:00:00 15.7 13 Norte 23 Norte 0 -- -- 46
2017-11-13 17:00:00 17.3 17 Norte 26 Norte 0 -- -- 45
2017-11-13 16:00:00 17.8 17 Norte 23 Norte 0 -- -- 44
2017-11-13 15:00:00 17.9 12 Norte 21 Norte 0 -- -- 41
2017-11-13 14:00:00 17 12 Nordeste 22 Norte 0 -- -- 47
2017-11-13 13:00:00 15.6 8 Norte 15 Norte 0 -- -- 54
2017-11-13 12:00:00 13.3 8 Noroeste 14 Noroeste 0 -- -- 67
2017-11-13 11:00:00 10.9 8 Noroeste 12 Norte 0 -- -- 76
2017-11-13 10:00:00 9.6 3 Noroeste 6 Norte 0 -- -- 79
2017-11-13 09:00:00 8.2 4 Sudoeste 9 Oeste 0 -- -- 83
2017-11-13 08:00:00 7.2 7 Oeste 10 Oeste 0 -- -- 86
2017-11-13 07:00:00 6.7 8 Sudoeste 18 Oeste 0 -- -- 82
2017-11-13 06:00:00 7.3 11 Oeste 14 Oeste 0 -- -- 79
2017-11-13 05:00:00 7.5 9 Oeste 11 Oeste 0 -- -- 78
2017-11-13 04:00:00 8 9 Noroeste 12 Oeste 0 -- -- 75
2017-11-13 03:00:00 9.1 12 Oeste 13 Oeste 0 -- -- 70
2017-11-13 02:00:00 9.6 8 Oeste 17 Noroeste 0 -- -- 70
2017-11-13 01:00:00 10.1 8 Oeste 13 Oeste 0 -- -- 69
2017-11-13 00:00:00 10.9 6 Oeste 9 Oeste 0 -- -- 66
2017-11-12 23:00:00 11.3 9 Oeste 12 Oeste 0 -- -- 61
2017-11-12 22:00:00 12 7 Sudoeste 14 Oeste 0 -- -- 55
2017-11-12 21:00:00 13 10 Noroeste 15 Noroeste 0 -- -- 54
2017-11-12 20:00:00 13.8 7 Noroeste 21 Noroeste 0 -- -- 47
2017-11-12 19:00:00 14.9 18 Norte 30 Norte 0 -- -- 43
2017-11-12 18:00:00 18.1 18 Norte 21 Norte 0 -- -- 34
2017-11-12 17:00:00 20.2 16 Norte 23 Noroeste 0 -- -- 26
2017-11-12 16:00:00 20.1 14 Noroeste 28 Norte 0 -- -- 31
2017-11-12 15:00:00 20.1 23 Norte 31 Noroeste 0 -- -- 29
2017-11-12 14:00:00 19.2 15 Noroeste 26 Noroeste 0 -- -- 39
2017-11-12 13:00:00 18.3 12 Oeste 18 Oeste 0 -- -- 43
2017-11-12 12:00:00 16.7 14 Noroeste 19 Oeste 0 -- -- 46
2017-11-12 11:00:00 15 8 Oeste 12 Oeste 0 -- -- 55
2017-11-12 10:00:00 14.3 5 Sudoeste 8 Sudoeste 0 -- -- 54
2017-11-12 09:00:00 12.3 6 Sudoeste 8 Sudoeste 0 -- -- 58
2017-11-12 08:00:00 11.4 4 Sudoeste 7 Sudoeste 0 -- -- 60
2017-11-12 07:00:00 11.3 4 Sudoeste 6 Sudoeste 0 -- -- 61
2017-11-12 06:00:00 11.5 3 Sudoeste 4 Sudoeste 0 -- -- 61
2017-11-12 05:00:00 11.7 4 Sudoeste 5 Oeste 0 -- -- 61
2017-11-12 04:00:00 11.3 3 Sudoeste 5 Sudoeste 0 -- -- 64
2017-11-12 03:00:00 11.9 2 Sudoeste 4 Sudoeste 0 -- -- 63
2017-11-12 02:00:00 12.4 2 Sudoeste 6 Sudoeste 0 -- -- 61
2017-11-12 01:00:00 12 4 Sur 8 Sudoeste 0 -- -- 62
2017-11-12 00:00:00 12 5 Sudoeste 8 Sudoeste 0 -- -- 61
2017-11-11 23:00:00 12.5 3 Oeste 6 Oeste 0 -- -- 59
2017-11-11 22:00:00 13.1 0 Calma 5 Sudeste 0 -- -- 58
2017-11-11 21:00:00 13.2 0 Calma 6 Norte 0 -- -- 57
2017-11-11 20:00:00 13.8 5 Nordeste 9 Norte 0 -- -- 54
2017-11-11 19:00:00 14.4 9 Norte 15 Norte 0 -- -- 51
2017-11-11 18:00:00 16.8 11 Norte 22 Noroeste 0 -- -- 45
2017-11-11 17:00:00 18.6 15 Norte 26 Noroeste 0 -- -- 39
2017-11-11 16:00:00 19 18 Norte 26 Norte 0 -- -- 39
2017-11-11 15:00:00 19 15 Norte 24 Noroeste 0 -- -- 39
2017-11-11 14:00:00 18.8 15 Norte 21 Noroeste 0 -- -- 40
2017-11-11 13:00:00 17.7 11 Norte 22 Norte 0 -- -- 43
2017-11-11 12:00:00 16.3 6 Norte 11 Norte 0 -- -- 47
2017-11-11 11:00:00 14.7 7 Noroeste 11 Oeste 0 -- -- 55
2017-11-11 10:00:00 14.2 3 Este 5 Este 0 -- -- 54
2017-11-11 09:00:00 10 4 Sur 7 Sudeste 0 -- -- 63
2017-11-11 08:00:00 9.7 0 Calma 3 Sur 0 -- -- 62
2017-11-11 07:00:00 9.5 0 Calma 5 Sudoeste 0 -- -- 60
2017-11-11 06:00:00 8.9 4 Sudoeste 6 Sudoeste 0 -- -- 59
2017-11-11 05:00:00 9.2 3 Noroeste 9 Noroeste 0 -- -- 58
2017-11-11 04:00:00 9.9 3 Oeste 5 Noroeste 0 -- -- 54
2017-11-11 03:00:00 9.9 3 Sudoeste 5 Sudoeste 0 -- -- 53
2017-11-11 02:00:00 9.9 7 Sudoeste 8 Sudoeste 0 -- -- 53
2017-11-11 01:00:00 10.2 2 Noroeste 5 Sudoeste 0 -- -- 52
2017-11-11 00:00:00 9.9 2 Noroeste 5 Sudoeste 0 -- -- 53
2017-11-10 23:00:00 9.5 3 Oeste 9 Oeste 0 -- -- 55
2017-11-10 22:00:00 11.6 -- -- -- -- 0 -- -- 47
2017-11-10 21:00:00 11.9 6 Nordeste 13 Norte 0 -- -- 47
2017-11-10 20:00:00 11.1 8 Norte 15 Norte 0 -- -- 51
2017-11-10 19:00:00 11.8 14 Norte 17 Norte 0 -- -- 50
2017-11-10 18:00:00 14.6 15 Norte 31 Norte 0 -- -- 43
2017-11-10 17:00:00 16.1 21 Norte 30 Norte 0 -- -- 39
2017-11-10 16:00:00 16.4 18 Norte 28 Norte 0 -- -- 38
2017-11-10 15:00:00 16.1 18 Nordeste 35 Nordeste 0 -- -- 40
2017-11-10 14:00:00 15.5 26 Nordeste 39 Nordeste 0 -- -- 42
2017-11-10 13:00:00 14.5 28 Nordeste 38 Nordeste 0 -- -- 45
2017-11-10 12:00:00 13.6 17 Nordeste 28 Norte 0 -- -- 46
2017-11-10 11:00:00 11.2 14 Norte 19 Nordeste 0 -- -- 50
2017-11-10 10:00:00 6.8 0 Calma 6 Oeste 0 -- -- 61
2017-11-10 09:00:00 5.3 2 Sur 19 Nordeste 0 -- -- 66
2017-11-10 08:00:00 3 15 Nordeste 17 Nordeste 0 -- -- 72
2017-11-10 07:00:00 3.2 8 Nordeste 14 Nordeste 0 -- -- 71
2017-11-10 06:00:00 5.2 9 Este 12 Este 0 -- -- 63
2017-11-10 05:00:00 5.7 10 Este 14 Nordeste 0 -- -- 63
2017-11-10 04:00:00 4 10 Nordeste 17 Este 0 -- -- 69
2017-11-10 03:00:00 4.2 15 Este 17 Nordeste 0 -- -- 69
2017-11-10 02:00:00 4.2 9 Nordeste 15 Nordeste 0 -- -- 67
2017-11-10 01:00:00 4.6 13 Nordeste 17 Nordeste 0 -- -- 65
2017-11-10 00:00:00 5.1 7 Nordeste 16 Nordeste 0 -- -- 63
2017-11-09 23:00:00 5.9 13 Nordeste 21 Norte 0 -- -- 60
2017-11-09 22:00:00 6.5 12 Nordeste 17 Norte 0 -- -- 57
2017-11-09 21:00:00 6.7 8 Nordeste 14 Nordeste 0 -- -- 54
2017-11-09 20:00:00 7.5 11 Nordeste 15 Nordeste 0 -- -- 50
2017-11-09 19:00:00 8.8 12 Nordeste 28 Nordeste 0 -- -- 46
2017-11-09 18:00:00 11.9 24 Nordeste 36 Nordeste 0 -- -- 39
2017-11-09 17:00:00 13.1 26 Nordeste 39 Norte 0 -- -- 37
2017-11-09 16:00:00 13.4 30 Nordeste 43 Nordeste 0 -- -- 37
2017-11-09 15:00:00 13.9 27 Nordeste 44 Este 0 -- -- 36
2017-11-09 14:00:00 13.6 27 Nordeste 39 Nordeste 0 -- -- 36
2017-11-09 13:00:00 12.9 31 Nordeste 46 Nordeste 0 -- -- 36
2017-11-09 12:00:00 11.5 29 Nordeste 41 Nordeste 0 -- -- 39
2017-11-09 11:00:00 9.6 28 Nordeste 37 Nordeste 0 -- -- 48
2017-11-09 10:00:00 7.9 22 Nordeste 28 Nordeste 0 -- -- 55
2017-11-09 09:00:00 5.3 21 Nordeste 25 Nordeste 0 -- -- 68
2017-11-09 08:00:00 4.1 18 Nordeste 23 Nordeste 0 -- -- 73
2017-11-09 07:00:00 5 23 Nordeste 26 Nordeste 0 -- -- 66
2017-11-09 06:00:00 4.7 17 Nordeste 21 Nordeste 0 -- -- 70
2017-11-09 05:00:00 5.4 19 Nordeste 24 Nordeste 0 -- -- 67
2017-11-09 04:00:00 6.7 20 Nordeste 25 Nordeste 0 -- -- 63
2017-11-09 03:00:00 8.4 18 Nordeste 27 Nordeste 0 -- -- 59
2017-11-09 02:00:00 8.8 18 Este 23 Este 0 -- -- 61
2017-11-09 01:00:00 7.8 6 Este 18 Nordeste 0 -- -- 62
2017-11-09 00:00:00 8.3 15 Nordeste 22 Norte 0 -- -- 56
2017-11-08 23:00:00 8.5 14 Norte 29 Norte 0 -- -- 53
2017-11-08 22:00:00 9.6 24 Norte 33 Norte 0 -- -- 48
2017-11-08 21:00:00 10.6 28 Norte 40 Norte 0 -- -- 54
2017-11-08 20:00:00 11 11 Norte 17 Norte 0 -- -- 66
2017-11-08 19:00:00 12.1 15 Norte 19 Norte 0 -- -- 63
2017-11-08 18:00:00 14.1 15 Norte 24 Norte 0 -- -- 53
2017-11-08 17:00:00 15.8 21 Norte 27 Norte 0 -- -- 49
2017-11-08 16:00:00 16.3 15 Norte 22 Noroeste 0 -- -- 50
2017-11-08 15:00:00 16.2 13 Norte 22 Noroeste 0 -- -- 48
2017-11-08 14:00:00 15.4 9 Noroeste 26 Norte 0 -- -- 53
2017-11-08 13:00:00 14.3 10 Noroeste 18 Norte 0 -- -- 59
2017-11-08 12:00:00 13 10 Noroeste 14 Noroeste 0 -- -- 69
2017-11-08 11:00:00 11.8 4 Noroeste 9 Sudoeste 0 -- -- 72
2017-11-08 10:00:00 10 3 Sudoeste 8 Noroeste 0 -- -- 76
2017-11-08 09:00:00 8.7 4 Oeste 12 Noroeste 0 -- -- 78
2017-11-08 08:00:00 7.9 0 Calma 6 Oeste 0 -- -- 77
2017-11-08 07:00:00 8.2 3 Sudoeste 6 Sudoeste 0 -- -- 75
2017-11-08 06:00:00 8.1 3 Sudoeste 10 Oeste 0 -- -- 74
2017-11-08 05:00:00 9.2 6 Oeste 8 Oeste 0 -- -- 69
2017-11-08 04:00:00 10.1 4 Oeste 5 Oeste 0 -- -- 66
2017-11-08 03:00:00 9.7 0 Calma 6 Noroeste 0 -- -- 66
2017-11-08 02:00:00 10.1 4 Noroeste 6 Oeste 0 -- -- 65
2017-11-08 01:00:00 10.3 4 Oeste 8 Sudoeste 0 -- -- 63
2017-11-08 00:00:00 10.7 6 Sudoeste 10 Sudoeste 0 -- -- 60
2017-11-07 23:00:00 11.6 6 Sudoeste 9 Sudoeste 0 -- -- 56
2017-11-07 22:00:00 11.5 4 Sudoeste 6 Sudoeste 0 -- -- 57
2017-11-07 21:00:00 11.9 2 Oeste 10 Noroeste 0 -- -- 56
2017-11-07 20:00:00 12.4 10 Noroeste 14 Noroeste 0 -- -- 54
2017-11-07 19:00:00 13.1 9 Norte 12 Noroeste 0 -- -- 52
2017-11-07 18:00:00 15.9 9 Norte 17 Noroeste 0 -- -- 44
2017-11-07 17:00:00 17.3 15 Norte 23 Noroeste 0 -- -- 40
2017-11-07 16:00:00 17.2 17 Noroeste 31 Noroeste 0 -- -- 38
2017-11-07 15:00:00 17.5 20 Noroeste 30 Norte 0 -- -- 39
2017-11-07 14:00:00 16.8 12 Norte 21 Norte 0 -- -- 41
2017-11-07 13:00:00 15.6 12 Norte 23 Norte 0 -- -- 42
2017-11-07 12:00:00 14.7 14 Norte 21 Norte 0 -- -- 44
2017-11-07 11:00:00 13.1 6 Este 13 Este 0 -- -- 50
2017-11-07 10:00:00 10.6 7 Este 12 Este 0 -- -- 59
2017-11-07 09:00:00 8.2 9 Este 12 Este 0 -- -- 69
2017-11-07 08:00:00 7 11 Este 12 Este 0 -- -- 71
2017-11-07 07:00:00 5.8 7 Nordeste 17 Este 0 -- -- 76
2017-11-07 06:00:00 7.6 14 Este 17 Este 0 -- -- 68
2017-11-07 05:00:00 6.9 11 Este 16 Este 0 -- -- 71
2017-11-07 04:00:00 8.9 10 Este 21 Este 0 -- -- 64
2017-11-07 03:00:00 8.9 11 Este 13 Nordeste 0 -- -- 65
2017-11-07 02:00:00 7.3 10 Nordeste 14 Nordeste 0 -- -- 72
2017-11-07 01:00:00 7.5 13 Nordeste 14 Nordeste 0 -- -- 71
2017-11-07 00:00:00 9 8 Nordeste 14 Nordeste 0 -- -- 65
2017-11-06 23:00:00 8.9 13 Nordeste 14 Nordeste 0 -- -- 64
2017-11-06 22:00:00 9.5 6 Nordeste 17 Norte 0 -- -- 62
2017-11-06 21:00:00 9.2 13 Nordeste 17 Norte 0 -- -- 65
2017-11-06 20:00:00 10.3 14 Nordeste 17 Nordeste 0 -- -- 61
2017-11-06 19:00:00 11.7 14 Nordeste 18 Nordeste 0 -- -- 55
2017-11-06 18:00:00 14.8 15 Nordeste 24 Nordeste 0 -- -- 45
2017-11-06 17:00:00 16.3 17 Nordeste 29 Este 0 -- -- 41
2017-11-06 16:00:00 16.6 19 Nordeste 37 Nordeste 0 -- -- 40
2017-11-06 15:00:00 16.4 22 Nordeste 34 Este 0 -- -- 40
2017-11-06 14:00:00 16.5 26 Nordeste 36 Nordeste 0 -- -- 40
2017-11-06 13:00:00 15.7 21 Nordeste 32 Este 0 -- -- 45
2017-11-06 12:00:00 14.7 17 Este 30 Este 0 -- -- 50
2017-11-06 11:00:00 12.8 20 Este 27 Este 0 -- -- 56
2017-11-06 10:00:00 10.4 18 Este 26 Este 0 -- -- 65
2017-11-06 09:00:00 8.6 16 Este 23 Este 0 -- -- 72
2017-11-06 08:00:00 7.1 19 Este 24 Este 0 -- -- 76
2017-11-06 07:00:00 7.6 9 Este 18 Nordeste 0 -- -- 74
2017-11-06 06:00:00 6.6 15 Este 19 Este 0 -- -- 82
2017-11-06 05:00:00 5.8 12 Nordeste 16 Nordeste 0 -- -- 82
2017-11-06 04:00:00 6.8 8 Nordeste 12 Nordeste 0 -- -- 79
2017-11-06 03:00:00 7.3 9 Nordeste 10 Nordeste 0 -- -- 75
2017-11-06 02:00:00 8.5 5 Nordeste 8 Norte 0 -- -- 70
2017-11-06 01:00:00 9.1 4 Norte 11 Norte 0 -- -- 67
2017-11-06 00:00:00 9.6 7 Norte 10 Norte 0 -- -- 66
2017-11-05 23:00:00 9.8 7 Norte 22 Norte 0 -- -- 66
2017-11-05 22:00:00 10.5 19 Norte 26 Norte 0 -- -- 66
2017-11-05 21:00:00 11.1 18 Norte 23 Norte 0 -- -- 73
2017-11-05 20:00:00 11.8 11 Noroeste 17 Norte 0 -- -- 73
2017-11-05 19:00:00 12.9 12 Norte 23 Norte 0 -- -- 71
2017-11-05 18:00:00 15.1 18 Norte 28 Norte 0 -- -- 62
2017-11-05 17:00:00 16.2 22 Norte 31 Norte 0 -- -- 60
2017-11-05 16:00:00 16.4 21 Noroeste 31 Norte 0 -- -- 58
2017-11-05 15:00:00 15.8 20 Noroeste 30 Noroeste 0 -- -- 64
2017-11-05 14:00:00 15.4 18 Noroeste 26 Noroeste 0 -- -- 66
2017-11-05 13:00:00 14 14 Noroeste 22 Noroeste 0 -- -- 77
2017-11-05 12:00:00 11.8 12 Noroeste 18 Noroeste 0 -- -- 97
2017-11-05 11:00:00 9.8 8 Noroeste 14 Oeste 0 -- -- 99
2017-11-05 10:00:00 9.2 6 Oeste 9 Noroeste 0 -- -- 98
2017-11-05 09:00:00 8.6 5 Sudoeste 9 Sudoeste 0 -- -- 98
2017-11-05 08:00:00 8.4 4 Sudoeste 9 Oeste 0 -- -- 98
2017-11-05 07:00:00 9 7 Oeste 12 Oeste 0 -- -- 98
2017-11-05 06:00:00 9.3 8 Oeste 15 Oeste 0 -- -- 97
2017-11-05 05:00:00 9.2 10 Oeste 12 Oeste 0 -- -- 97
2017-11-05 04:00:00 9.8 10 Oeste 16 Oeste 0 -- -- 97
2017-11-05 03:00:00 9.6 12 Oeste 15 Oeste 0 -- -- 96
2017-11-05 02:00:00 9.7 10 Oeste 15 Oeste 0 -- -- 96
2017-11-05 01:00:00 10.3 10 Oeste 14 Sudoeste 0 -- -- 95
2017-11-05 00:00:00 10.8 7 Oeste 15 Oeste 0 -- -- 93
2017-11-04 23:00:00 11.9 13 Oeste 22 Oeste 0 -- -- 91
2017-11-04 22:00:00 12.2 18 Oeste 23 Oeste 0 -- -- 90
2017-11-04 21:00:00 12.3 14 Oeste 18 Oeste 0 -- -- 92
2017-11-04 20:00:00 12.1 17 Oeste 22 Oeste 0 -- -- 92
2017-11-04 19:00:00 12.7 18 Oeste 28 Oeste 0 -- -- 90
2017-11-04 18:00:00 13.2 23 Oeste 33 Oeste 0.2 -- -- 90
2017-11-04 17:00:00 13.9 29 Oeste 40 Oeste 0.2 -- -- 82
2017-11-04 16:00:00 14.3 28 Oeste 47 Oeste 0 -- -- 87
2017-11-04 15:00:00 14.7 30 Oeste 47 Oeste 0.4 -- -- 81
2017-11-04 14:00:00 15.2 33 Sudoeste 48 Sudoeste 0 -- -- 75
2017-11-04 13:00:00 15.7 29 Sudoeste 42 Oeste 0 -- -- 69
2017-11-04 12:00:00 15.4 27 Sudoeste 43 Oeste 0 -- -- 75
2017-11-04 11:00:00 14 24 Oeste 37 Sudoeste 0 -- -- 84
2017-11-04 10:00:00 12.6 20 Sudoeste 28 Sudoeste 0 -- -- 91
2017-11-04 09:00:00 12.7 21 Sudoeste 28 Sudoeste 0 -- -- 88
2017-11-04 08:00:00 11.9 18 Sudoeste 24 Sudoeste 0 -- -- 90
2017-11-04 07:00:00 12.3 13 Sudoeste 21 Sudoeste 0 -- -- 88
2017-11-04 06:00:00 12.2 12 Sudoeste 22 Sur 0 -- -- 89
2017-11-04 05:00:00 12.3 19 Sur 29 Sur 0 -- -- 87
2017-11-04 04:00:00 12.3 21 Sur 28 Sur 0 -- -- 88
2017-11-04 03:00:00 12.3 15 Sur 35 Sudoeste 0 -- -- 87
2017-11-04 02:00:00 12.8 27 Sudoeste 33 Sudoeste 0 -- -- 85
2017-11-04 01:00:00 13 23 Sudoeste 31 Sudoeste 0.4 -- -- 89
2017-11-04 00:00:00 13.1 25 Sudoeste 36 Sudoeste 0 -- -- 86
2017-11-03 23:00:00 12.9 19 Sur 29 Sudoeste 0 -- -- 85
2017-11-03 22:00:00 12.8 22 Sur 30 Sur 0 -- -- 85
2017-11-03 21:00:00 13.7 12 Sur 25 Sur 0 -- -- 81
2017-11-03 20:00:00 14.4 10 Sur 27 Sur 0 -- -- 83
2017-11-03 19:00:00 14.8 23 Sudeste 30 Sur 0 -- -- 83
2017-11-03 18:00:00 15.6 22 Sudeste 36 Sudeste 0 -- -- 77
2017-11-03 17:00:00 16.5 27 Sudeste 35 Sudeste 0 -- -- 72
2017-11-03 16:00:00 17.5 27 Sudeste 36 Sur 0 -- -- 67
2017-11-03 15:00:00 19.5 23 Sur 33 Sur 0 -- -- 56
2017-11-03 14:00:00 18.6 9 Sur 21 Sudoeste 0 -- -- 53
2017-11-03 13:00:00 17.4 7 Sur 20 Sur 0 -- -- 60
2017-11-03 12:00:00 17.8 9 Sur 22 Sur 0 -- -- 63
2017-11-03 11:00:00 16.2 12 Sur 19 Sur 0 -- -- 79
2017-11-03 10:00:00 14.6 9 Sudeste 12 Sur 0 -- -- 90
2017-11-03 09:00:00 13.9 2 Sur 8 Sudeste 0 -- -- 92
2017-11-03 08:00:00 13.4 4 Sur 6 Sudoeste 0 -- -- 93
2017-11-03 07:00:00 13.5 7 Sudoeste 12 Sudoeste 0 -- -- 93
2017-11-03 06:00:00 13.6 8 Oeste 18 Sudoeste 0 -- -- 93
2017-11-03 05:00:00 13.6 6 Sudoeste 12 Sudoeste 0 -- -- 92
2017-11-03 04:00:00 13.6 2 Sudoeste 12 Sudeste 0.4 -- -- 92
2017-11-03 03:00:00 13.7 10 Sudeste 14 Sur 0.2 -- -- 89
2017-11-03 02:00:00 13.9 12 Sur 16 Sur 1.2 -- -- 86
2017-11-03 01:00:00 14.8 6 Sudoeste 18 Sudoeste 0 -- -- 79
2017-11-03 00:00:00 15.1 9 Sudoeste 29 Sur 0 -- -- 79
2017-11-02 23:00:00 15.3 17 Sur 26 Sur 0 -- -- 75
2017-11-02 22:00:00 15.1 15 Sudeste 22 Sudeste 0 -- -- 77
2017-11-02 21:00:00 15.2 14 Sur 23 Sudeste 0 -- -- 77
2017-11-02 20:00:00 15.7 17 Sudeste 23 Sudeste 0 -- -- 74
2017-11-02 19:00:00 16.2 8 Sur 24 Sur 0 -- -- 71
2017-11-02 18:00:00 17.2 18 Sur 28 Sur 0 -- -- 69
2017-11-02 17:00:00 17.5 19 Sur 26 Sudoeste 0 -- -- 68
2017-11-02 16:00:00 17.1 22 Sur 33 Sur 0 -- -- 72
2017-11-02 15:00:00 17.6 27 Sur 34 Sudeste 0 -- -- 67
2017-11-02 14:00:00 16.6 23 Sur 36 Sur 0 -- -- 72
2017-11-02 13:00:00 16.5 30 Sur 39 Sur 0 -- -- 71
2017-11-02 12:00:00 15.7 31 Sur 37 Sur 0 -- -- 77
2017-11-02 11:00:00 15.4 23 Sur 36 Sur 0 -- -- 79
2017-11-02 10:00:00 15.3 24 Sur 37 Sur 0 -- -- 79
2017-11-02 09:00:00 14.1 25 Sudeste 36 Sur 0 -- -- 83
2017-11-02 08:00:00 13.8 26 Sur 36 Sur 0 -- -- 83
2017-11-02 07:00:00 13.2 23 Sudeste 36 Sudeste 0 -- -- 87
2017-11-02 06:00:00 13.2 21 Sudeste 25 Sudeste 0 -- -- 87
2017-11-02 05:00:00 13.6 14 Sudeste 19 Sudeste 0 -- -- 84
2017-11-02 04:00:00 14.2 9 Sudeste 17 Sudeste 0 -- -- 80
2017-11-02 03:00:00 13.8 9 Sudeste 19 Sur 0 -- -- 83
2017-11-02 02:00:00 14.1 12 Sudeste 15 Sudeste 0 -- -- 83
2017-11-02 01:00:00 14.9 11 Sudeste 13 Sudeste 0 -- -- 82
2017-11-02 00:00:00 15.4 8 Sudeste 12 Sur 0 -- -- 80
2017-11-01 23:00:00 15.7 4 Sudeste 8 Sur 0 -- -- 80
2017-11-01 22:00:00 15.7 9 Sur 15 Sudeste 0 -- -- 76
2017-11-01 21:00:00 15.8 11 Sudeste 15 Sudeste 0 -- -- 68
2017-11-01 20:00:00 16.5 11 Sudeste 17 Sudeste 0 -- -- 62
2017-11-01 19:00:00 17 11 Sudeste 24 Sudeste 0 -- -- 60
2017-11-01 18:00:00 18.9 16 Sur 31 Sudeste 0 -- -- 53
2017-11-01 17:00:00 20.6 21 Sur 31 Sur 0 -- -- 48
2017-11-01 16:00:00 20.9 23 Sur 35 Sur 0 -- -- 46
2017-11-01 15:00:00 21.2 21 Sur 34 Sur 0 -- -- 44
2017-11-01 14:00:00 21.1 23 Sur 36 Sur 0 -- -- 48
2017-11-01 13:00:00 20.4 24 Sudeste 38 Sudeste 0 -- -- 48
2017-11-01 12:00:00 19.1 18 Sudeste 30 Sudeste 0 -- -- 56
2017-11-01 11:00:00 16.8 18 Sudeste 26 Sudeste 0 -- -- 70
2017-11-01 10:00:00 14.6 14 Este 25 Sudeste 0 -- -- 82
2017-11-01 09:00:00 12.7 17 Sudeste 23 Sudeste 0 -- -- 89
2017-11-01 08:00:00 11.6 16 Este 23 Sudeste 0 -- -- 89
2017-11-01 07:00:00 12 17 Este 27 Sudeste 0 -- -- 86
2017-11-01 06:00:00 11.9 17 Este 23 Este 0 -- -- 84
2017-11-01 05:00:00 12.5 17 Este 27 Sudeste 0 -- -- 81
2017-11-01 04:00:00 12.5 20 Este 26 Este 0 -- -- 80
2017-11-01 03:00:00 12.9 17 Este 26 Sudeste 0 -- -- 79
2017-11-01 02:00:00 13.5 22 Sudeste 27 Este 0 -- -- 76
2017-11-01 01:00:00 14.3 19 Este 24 Sudeste 0 -- -- 70
2017-11-01 00:00:00 15.4 16 Este 20 Sudeste 0 -- -- 65
2017-10-31 23:00:00 15.2 14 Sudeste 17 Sudeste 0 -- -- 63
2017-10-31 22:00:00 15.5 4 Sudeste 18 Sudeste 0 -- -- 58
2017-10-31 21:00:00 16.4 17 Sudeste 21 Sudeste 0 -- -- 55
2017-10-31 20:00:00 16.8 15 Sudeste 17 Sudeste 0 -- -- 54
2017-10-31 19:00:00 18.1 14 Sudeste 18 Sudeste 0 -- -- 49
2017-10-31 18:00:00 21.1 13 Sudeste 19 Sudeste 0 -- -- 44
2017-10-31 17:00:00 22.4 11 Sur 22 Sur 0 -- -- 37
2017-10-31 16:00:00 23 15 Sur 28 Este 0 -- -- 39
2017-10-31 15:00:00 22.8 14 Este 24 Sudeste 0 -- -- 38
2017-10-31 14:00:00 22.7 13 Este 21 Este 0 -- -- 39
2017-10-31 13:00:00 21.8 12 Sudeste 24 Sudeste 0 -- -- 41
2017-10-31 12:00:00 20.1 13 Este 23 Este 0 -- -- 47
2017-10-31 11:00:00 18.1 14 Este 22 Sudeste 0 -- -- 52
2017-10-31 10:00:00 16.5 14 Este 19 Sudeste 0 -- -- 56
2017-10-31 09:00:00 14.3 17 Sudeste 21 Sudeste 0 -- -- 62
2017-10-31 08:00:00 13.8 10 Este 20 Sudeste 0 -- -- 55
2017-10-31 07:00:00 14.2 15 Sudeste 18 Sudeste 0 -- -- 52
2017-10-31 06:00:00 14.6 12 Este 17 Sudeste 0 -- -- 48
2017-10-31 05:00:00 15.1 16 Sudeste 18 Este 0 -- -- 47
2017-10-31 04:00:00 15.3 10 Este 17 Este 0 -- -- 40
2017-10-31 03:00:00 12.6 10 Nordeste 19 Sudeste 0 -- -- 47
2017-10-31 02:00:00 17.1 15 Este 20 Este 0 -- -- 37
2017-10-31 01:00:00 16.2 15 Este 18 Este 0 -- -- 37
2017-10-31 00:00:00 17.4 15 Este 18 Este 0 -- -- 36
2017-10-30 23:00:00 17.4 14 Este 17 Este 0 -- -- 36
2017-10-30 22:00:00 17.2 14 Este 17 Este 0 -- -- 37
2017-10-30 21:00:00 16.8 10 Sudeste 21 Este 0 -- -- 44
2017-10-30 20:00:00 16.8 17 Este 20 Nordeste 0 -- -- 36
2017-10-30 19:00:00 18.1 13 Nordeste 22 Nordeste 0 -- -- 33
2017-10-30 18:00:00 21.9 18 Nordeste 23 Nordeste 0 -- -- 29
2017-10-30 17:00:00 23.9 13 Nordeste 26 Nordeste 0 -- -- 25
2017-10-30 16:00:00 24.3 13 Este 24 Este 0 -- -- 24
2017-10-30 15:00:00 23.9 10 Nordeste 21 Este 0 -- -- 25
2017-10-30 14:00:00 23.6 13 Este 22 Este 0 -- -- 27
2017-10-30 13:00:00 22.9 11 Este 20 Este 0 -- -- 25
2017-10-30 12:00:00 21.3 14 Este 25 Sudeste 0 -- -- 31
2017-10-30 11:00:00 19.4 18 Este 25 Este 0 -- -- 38
2017-10-30 10:00:00 17.9 16 Este 24 Este 0 -- -- 40
2017-10-30 09:00:00 16.7 17 Este 20 Este 0 -- -- 35
2017-10-30 08:00:00 16.9 12 Este 17 Este 0 -- -- 34
2017-10-30 07:00:00 16.8 13 Este 17 Este 0 -- -- 34
2017-10-30 06:00:00 17.1 11 Este 15 Sudeste 0 -- -- 34
2017-10-30 05:00:00 16 11 Sudeste 13 Sudeste 0 -- -- 38
2017-10-30 04:00:00 17.2 9 Este 13 Este 0 -- -- 33
2017-10-30 03:00:00 17.2 10 Este 12 Este 0 -- -- 31
2017-10-30 02:00:00 17.1 4 Nordeste 5 Norte 0 -- -- 31
2017-10-30 01:00:00 16.8 3 Nordeste 6 Sudeste 0 -- -- 31
2017-10-30 00:00:00 16.9 4 Sudeste 4 Sudeste 0 -- -- 31
2017-10-29 23:00:00 16.7 5 Sur 6 Sudeste 0 -- -- 32
2017-10-29 22:00:00 17.3 4 Sudeste 14 Nordeste 0 -- -- 32
2017-10-29 21:00:00 16.2 11 Nordeste 15 Nordeste 0 -- -- 37
2017-10-29 20:00:00 17.6 13 Nordeste 20 Norte 0 -- -- 36
2017-10-29 19:00:00 19.9 10 Nordeste 12 Nordeste 0 -- -- 33
2017-10-29 18:00:00 23.5 11 Nordeste 15 Nordeste 0 -- -- 26
2017-10-29 17:00:00 24.9 8 Este 18 Nordeste 0 -- -- 24
2017-10-29 16:00:00 24.8 12 Nordeste 24 Nordeste 0 -- -- 29
2017-10-29 15:00:00 24.5 13 Nordeste 23 Nordeste 0 -- -- 31
2017-10-29 14:00:00 24.2 12 Nordeste 19 Nordeste 0 -- -- 34
2017-10-29 13:00:00 23.5 8 Este 18 Este 0 -- -- 35
2017-10-29 12:00:00 22.6 11 Este 20 Nordeste 0 -- -- 39
2017-10-29 11:00:00 20.1 15 Este 22 Este 0 -- -- 49
2017-10-29 10:00:00 17.3 15 Este 21 Este 0 -- -- 49
2017-10-29 09:00:00 15.9 15 Este 22 Sudeste 0 -- -- 48
2017-10-29 08:00:00 14.7 15 Este 22 Este 0 -- -- 49
2017-10-29 07:00:00 14.6 19 Este 21 Este 0 -- -- 49
2017-10-29 06:00:00 14.5 15 Este 17 Este 0 -- -- 50
2017-10-29 05:00:00 14.4 15 Este 20 Este 0 -- -- 51
2017-10-29 04:00:00 15.4 10 Este 15 Este 0 -- -- 47
2017-10-29 03:00:00 17.5 14 Este 18 Este 0 -- -- 42
2017-10-29 02:00:00 16.8 12 Este 19 Este 0 -- -- 44
2017-10-29 01:00:00 18.5 18 Este 19 Este 0 -- -- 40
2017-10-29 00:00:00 19.8 12 Este 15 Este 0 -- -- 37
2017-10-28 23:00:00 17.6 13 Nordeste 17 Nordeste 0 -- -- 43
2017-10-28 22:00:00 18.8 14 Nordeste 15 Nordeste 0 -- -- 39
2017-10-28 21:00:00 18.9 14 Nordeste 15 Nordeste 0 -- -- 40
2017-10-28 20:00:00 21 13 Nordeste 17 Nordeste 0 -- -- 36
2017-10-28 19:00:00 24.7 14 Nordeste 23 Norte 0 -- -- 29
2017-10-28 18:00:00 26.5 14 Nordeste 24 Nordeste 0 -- -- 24
2017-10-28 17:00:00 26.8 14 Nordeste 31 Este 0 -- -- 23
2017-10-28 16:00:00 26.9 16 Este 30 Nordeste 0 -- -- 23
2017-10-28 15:00:00 26.2 22 Nordeste 32 Nordeste 0 -- -- 24
2017-10-28 14:00:00 25.5 20 Nordeste 31 Este 0 -- -- 26
2017-10-28 13:00:00 24.3 24 Este 36 Nordeste 0 -- -- 28
2017-10-28 12:00:00 22.4 25 Este 39 Este 0 -- -- 30
2017-10-28 11:00:00 20 26 Este 34 Este 0 -- -- 34
2017-10-28 10:00:00 17.1 17 Este 27 Este 0 -- -- 41
2017-10-28 09:00:00 15.8 22 Este 27 Este 0 -- -- 43
2017-10-28 08:00:00 14.9 18 Este 20 Este 0 -- -- 46
2017-10-28 07:00:00 15.5 9 Nordeste 18 Este 0 -- -- 46
2017-10-28 06:00:00 17.7 17 Este 20 Este 0 -- -- 41
2017-10-28 05:00:00 18 17 Este 20 Este 0 -- -- 41
2017-10-28 04:00:00 18.1 13 Este 17 Este 0 -- -- 41
2017-10-28 03:00:00 17.4 12 Nordeste 19 Este 0 -- -- 43
2017-10-28 02:00:00 17.1 14 Nordeste 18 Nordeste 0 -- -- 47
2017-10-28 01:00:00 18.5 16 Nordeste 17 Nordeste 0 -- -- 42
2017-10-28 00:00:00 19 16 Nordeste 18 Nordeste 0 -- -- 41
2017-10-27 23:00:00 20.4 12 Nordeste 19 Norte 0 -- -- 39
2017-10-27 22:00:00 21 14 Nordeste 19 Nordeste 0 -- -- 38
2017-10-27 21:00:00 21.2 13 Nordeste 17 Nordeste 0 -- -- 38
2017-10-27 20:00:00 22.3 16 Nordeste 19 Nordeste 0 -- -- 37
2017-10-27 19:00:00 26.4 17 Nordeste 26 Nordeste 0 -- -- 26
2017-10-27 18:00:00 28.5 18 Nordeste 26 Nordeste 0 -- -- 20
2017-10-27 17:00:00 29 17 Nordeste 26 Nordeste 0 -- -- 19
2017-10-27 16:00:00 28.7 17 Nordeste 27 Norte 0 -- -- 17
2017-10-27 15:00:00 27.9 17 Nordeste 26 Nordeste 0 -- -- 23
2017-10-27 14:00:00 26.5 12 Nordeste 20 Nordeste 0 -- -- 31
2017-10-27 13:00:00 25.4 15 Este 22 Este 0 -- -- 30
2017-10-27 12:00:00 23.3 12 Este 21 Este 0 -- -- 35
2017-10-27 11:00:00 20.3 14 Este 20 Sudeste 0 -- -- 41
2017-10-27 10:00:00 18.8 19 Este 28 Este 0 -- -- 43
2017-10-27 09:00:00 16.2 17 Este 19 Este 0 -- -- 48
2017-10-27 08:00:00 16.1 17 Este 20 Este 0 -- -- 48
2017-10-27 07:00:00 15.6 12 Nordeste 21 Este 0 -- -- 50
2017-10-27 06:00:00 17.9 11 Este 16 Este 0 -- -- 43
2017-10-27 05:00:00 16.2 14 Este 20 Este 0 -- -- 49
2017-10-27 04:00:00 19.1 17 Este 20 Este 0 -- -- 38
2017-10-27 03:00:00 18.5 8 Este 20 Este 0 -- -- 40
2017-10-27 02:00:00 16.4 14 Este 18 Este 0 -- -- 47
2017-10-27 01:00:00 17.2 9 Nordeste 16 Nordeste 0 -- -- 45
2017-10-27 00:00:00 17.5 15 Nordeste 17 Nordeste 0 -- -- 46
2017-10-26 23:00:00 17.9 16 Nordeste 19 Nordeste 0 -- -- 45
2017-10-26 22:00:00 18.4 17 Nordeste 21 Nordeste 0 -- -- 46
2017-10-26 21:00:00 19.1 19 Nordeste 22 Nordeste 0 -- -- 45
2017-10-26 20:00:00 21.2 16 Nordeste 17 Nordeste 0 -- -- 43
2017-10-26 19:00:00 25.2 14 Nordeste 22 Nordeste 0 -- -- 31
2017-10-26 18:00:00 27.1 16 Nordeste 24 Este 0 -- -- 27
2017-10-26 17:00:00 27.5 13 Nordeste 25 Nordeste 0 -- -- 27
2017-10-26 16:00:00 27.1 16 Nordeste 25 Nordeste 0 -- -- 30
2017-10-26 15:00:00 26.5 10 Este 21 Nordeste 0 -- -- 32
2017-10-26 14:00:00 25.1 12 Este 23 Este 0 -- -- 34
2017-10-26 13:00:00 23.3 15 Este 25 Este 0 -- -- 38
2017-10-26 12:00:00 21.3 16 Este 20 Este 0 -- -- 41
2017-10-26 11:00:00 18.8 13 Este 23 Este 0 -- -- 44
2017-10-26 10:00:00 17.2 15 Este 25 Este 0 -- -- 46
2017-10-26 09:00:00 16.6 19 Este 28 Sudeste 0 -- -- 47
2017-10-26 08:00:00 16.4 23 Este 31 Sudeste 0 -- -- 47
2017-10-26 07:00:00 16.2 24 Sudeste 31 Sudeste 0 -- -- 47
2017-10-26 06:00:00 16.4 22 Este 31 Este 0 -- -- 46
2017-10-26 05:00:00 17.4 21 Este 27 Este 0 -- -- 43
2017-10-26 04:00:00 18.9 18 Este 23 Este 0 -- -- 40
2017-10-26 03:00:00 19.1 15 Este 21 Este 0 -- -- 43
2017-10-26 02:00:00 19.2 11 Este 19 Este 0 -- -- 43
2017-10-26 01:00:00 19.3 15 Este 21 Este 0 -- -- 44
2017-10-26 00:00:00 18.6 9 Sudeste 20 Sudeste 0 -- -- 47
2017-10-25 23:00:00 18.6 17 Sudeste 21 Sudeste 0 -- -- 46
2017-10-25 22:00:00 18.9 17 Sudeste 20 Sudeste 0 -- -- 44
2017-10-25 21:00:00 19.3 16 Sudeste 20 Sur 0 -- -- 41
2017-10-25 20:00:00 21 14 Sur 19 Sur 0 -- -- 36
2017-10-25 19:00:00 24.8 11 Sur 22 Sur 0 -- -- 30
2017-10-25 18:00:00 26.2 17 Sudoeste 22 Sudoeste 0 -- -- 27
2017-10-25 17:00:00 26.8 15 Sudoeste 29 Sur 0 -- -- 25
2017-10-25 16:00:00 26.6 13 Sur 29 Sur 0 -- -- 24
2017-10-25 15:00:00 25.9 16 Sur 32 Sur 0 -- -- 25
2017-10-25 14:00:00 24.7 20 Sur 31 Sur 0 -- -- 28
2017-10-25 13:00:00 23.3 21 Sudeste 29 Sudeste 0 -- -- 28
2017-10-25 12:00:00 20 16 Este 28 Sudeste 0 -- -- 42
2017-10-25 11:00:00 18.2 23 Sudeste 30 Sudeste 0 -- -- 44
2017-10-25 10:00:00 15.2 22 Este 30 Sudeste 0 -- -- 53
2017-10-25 09:00:00 14.1 26 Sudeste 29 Sudeste 0 -- -- 53
2017-10-25 08:00:00 14.2 26 Sudeste 29 Sudeste 0 -- -- 52
2017-10-25 07:00:00 13.1 13 Sudeste 28 Sudeste 0 -- -- 56
2017-10-25 06:00:00 13.8 20 Sudeste 26 Sudeste 0 -- -- 53
2017-10-25 05:00:00 14.2 21 Sudeste 30 Este 0 -- -- 53
2017-10-25 04:00:00 14.6 20 Este 28 Este 0 -- -- 56
2017-10-25 03:00:00 15.5 15 Este 25 Este 0 -- -- 56
2017-10-25 02:00:00 17.6 19 Este 25 Este 0 -- -- 49
2017-10-25 01:00:00 17.8 18 Este 25 Este 0 -- -- 52
2017-10-25 00:00:00 17.6 16 Sudeste 21 Sudeste 0 -- -- 52